sensor_id;sensor_type;location;lat;lon;timestamp;temperature;humidity
70368;DHT22;57789;53.868;10.728;2023-06-05T00:00:18;11.60;99.90
70368;DHT22;57789;53.868;10.728;2023-06-05T00:02:43;11.60;99.90
70368;DHT22;57789;53.868;10.728;2023-06-05T00:05:09;11.60;99.90
70368;DHT22;57789;53.868;10.728;2023-06-05T00:07:36;11.50;99.90
70368;DHT22;57789;53.868;10.728;2023-06-05T00:10:06;11.40;99.90
70368;DHT22;57789;53.868;10.728;2023-06-05T00:12:32;11.30;99.90
70368;DHT22;57789;53.868;10.728;2023-06-05T00:14:57;11.10;99.90
70368;DHT22;57789;53.868;10.728;2023-06-05T00:17:23;11.00;99.90
70368;DHT22;57789;53.868;10.728;2023-06-05T00:19:50;11.00;99.90
70368;DHT22;57789;53.868;10.728;2023-06-05T00:22:15;11.10;99.90
70368;DHT22;57789;53.868;10.728;2023-06-05T00:24:41;10.90;99.90
70368;DHT22;57789;53.868;10.728;2023-06-05T00:27:08;10.90;99.90
70368;DHT22;57789;53.868;10.728;2023-06-05T00:29:35;10.70;99.90
70368;DHT22;57789;53.868;10.728;2023-06-05T00:32:01;10.60;99.90
70368;DHT22;57789;53.868;10.728;2023-06-05T00:34:26;10.50;99.90
70368;DHT22;57789;53.868;10.728;2023-06-05T00:36:52;10.40;99.90
70368;DHT22;57789;53.868;10.728;2023-06-05T00:39:18;10.40;99.90
70368;DHT22;57789;53.868;10.728;2023-06-05T00:41:45;10.40;99.90
70368;DHT22;57789;53.868;10.728;2023-06-05T00:44:12;10.40;99.90
70368;DHT22;57789;53.868;10.728;2023-06-05T00:46:38;10.50;99.90
70368;DHT22;57789;53.868;10.728;2023-06-05T00:49:05;10.50;99.90
70368;DHT22;57789;53.868;10.728;2023-06-05T00:51:33;10.50;99.90
70368;DHT22;57789;53.868;10.728;2023-06-05T00:53:59;10.50;99.90
70368;DHT22;57789;53.868;10.728;2023-06-05T00:56:25;10.50;99.90
70368;DHT22;57789;53.868;10.728;2023-06-05T00:58:52;10.50;99.90
70368;DHT22;57789;53.868;10.728;2023-06-05T01:01:18;10.50;99.90
70368;DHT22;57789;53.868;10.728;2023-06-05T01:03:46;10.50;99.90
70368;DHT22;57789;53.868;10.728;2023-06-05T01:06:13;10.60;99.90
70368;DHT22;57789;53.868;10.728;2023-06-05T01:08:42;10.70;99.90
70368;DHT22;57789;53.868;10.728;2023-06-05T01:13:44;10.60;99.90
70368;DHT22;57789;53.868;10.728;2023-06-05T01:16:11;10.50;99.90
70368;DHT22;57789;53.868;10.728;2023-06-05T01:18:38;10.30;99.90
70368;DHT22;57789;53.868;10.728;2023-06-05T01:21:11;10.30;99.90
70368;DHT22;57789;53.868;10.728;2023-06-05T01:23:42;10.40;99.90
70368;DHT22;57789;53.868;10.728;2023-06-05T01:26:14;10.40;99.90
70368;DHT22;57789;53.868;10.728;2023-06-05T01:28:44;10.40;99.90
70368;DHT22;57789;53.868;10.728;2023-06-05T01:31:13;10.40;99.90
70368;DHT22;57789;53.868;10.728;2023-06-05T01:33:51;10.30;99.90
70368;DHT22;57789;53.868;10.728;2023-06-05T01:36:23;10.20;99.90
70368;DHT22;57789;53.868;10.728;2023-06-05T01:38:51;10.20;99.90
70368;DHT22;57789;53.868;10.728;2023-06-05T01:41:17;10.30;99.90
70368;DHT22;57789;53.868;10.728;2023-06-05T01:43:46;10.30;99.90
70368;DHT22;57789;53.868;10.728;2023-06-05T01:46:12;10.40;99.90
70368;DHT22;57789;53.868;10.728;2023-06-05T01:48:39;10.40;99.90
70368;DHT22;57789;53.868;10.728;2023-06-05T01:51:05;10.30;99.90
70368;DHT22;57789;53.868;10.728;2023-06-05T01:53:33;10.30;99.90
70368;DHT22;57789;53.868;10.728;2023-06-05T01:55:58;10.30;99.90
70368;DHT22;57789;53.868;10.728;2023-06-05T01:58:26;10.20;99.90
70368;DHT22;57789;53.868;10.728;2023-06-05T02:00:52;10.10;99.90
70368;DHT22;57789;53.868;10.728;2023-06-05T02:03:19;10.10;99.90
70368;DHT22;57789;53.868;10.728;2023-06-05T02:05:45;10.20;99.90
70368;DHT22;57789;53.868;10.728;2023-06-05T02:08:11;10.20;99.90
70368;DHT22;57789;53.868;10.728;2023-06-05T02:10:39;10.20;99.90
70368;DHT22;57789;53.868;10.728;2023-06-05T02:13:13;10.20;99.90
70368;DHT22;57789;53.868;10.728;2023-06-05T02:15:41;10.20;99.90
70368;DHT22;57789;53.868;10.728;2023-06-05T02:18:10;10.20;99.90
70368;DHT22;57789;53.868;10.728;2023-06-05T02:20:36;10.20;99.90
70368;DHT22;57789;53.868;10.728;2023-06-05T02:23:02;10.10;99.90
70368;DHT22;57789;53.868;10.728;2023-06-05T02:25:33;10.10;99.90
70368;DHT22;57789;53.868;10.728;2023-06-05T02:27:59;10.10;99.90
70368;DHT22;57789;53.868;10.728;2023-06-05T02:30:24;10.10;99.90
70368;DHT22;57789;53.868;10.728;2023-06-05T02:32:51;10.10;99.90
70368;DHT22;57789;53.868;10.728;2023-06-05T02:35:22;10.10;99.90
70368;DHT22;57789;53.868;10.728;2023-06-05T02:37:48;10.10;99.90
70368;DHT22;57789;53.868;10.728;2023-06-05T02:40:14;10.00;99.90
70368;DHT22;57789;53.868;10.728;2023-06-05T02:42:40;9.90;99.90
70368;DHT22;57789;53.868;10.728;2023-06-05T02:45:07;9.90;99.90
70368;DHT22;57789;53.868;10.728;2023-06-05T02:47:34;9.90;99.90
70368;DHT22;57789;53.868;10.728;2023-06-05T02:50:01;9.80;99.90
70368;DHT22;57789;53.868;10.728;2023-06-05T02:52:27;9.80;99.90
70368;DHT22;57789;53.868;10.728;2023-06-05T02:55:01;9.80;99.90
70368;DHT22;57789;53.868;10.728;2023-06-05T02:57:27;9.80;99.90
70368;DHT22;57789;53.868;10.728;2023-06-05T02:59:53;9.80;99.90
70368;DHT22;57789;53.868;10.728;2023-06-05T03:02:21;9.90;99.90
70368;DHT22;57789;53.868;10.728;2023-06-05T03:04:48;9.90;99.90
70368;DHT22;57789;53.868;10.728;2023-06-05T03:07:21;9.80;99.90
70368;DHT22;57789;53.868;10.728;2023-06-05T03:09:50;9.90;99.90
70368;DHT22;57789;53.868;10.728;2023-06-05T03:12:16;9.80;99.90
70368;DHT22;57789;53.868;10.728;2023-06-05T03:14:42;9.80;99.90
70368;DHT22;57789;53.868;10.728;2023-06-05T03:17:07;9.80;99.90
70368;DHT22;57789;53.868;10.728;2023-06-05T03:19:35;9.80;99.90
70368;DHT22;57789;53.868;10.728;2023-06-05T03:22:00;9.80;99.90
70368;DHT22;57789;53.868;10.728;2023-06-05T03:24:26;9.80;99.90
70368;DHT22;57789;53.868;10.728;2023-06-05T03:26:53;9.80;99.90
70368;DHT22;57789;53.868;10.728;2023-06-05T03:29:19;9.90;99.90
70368;DHT22;57789;53.868;10.728;2023-06-05T03:31:45;9.90;99.90
70368;DHT22;57789;53.868;10.728;2023-06-05T03:34:11;9.90;99.90
70368;DHT22;57789;53.868;10.728;2023-06-05T03:36:37;9.90;99.90
70368;DHT22;57789;53.868;10.728;2023-06-05T03:39:05;10.00;99.90
70368;DHT22;57789;53.868;10.728;2023-06-05T03:41:31;9.90;99.90
70368;DHT22;57789;53.868;10.728;2023-06-05T03:43:57;10.00;99.90
70368;DHT22;57789;53.868;10.728;2023-06-05T03:46:22;10.00;99.90
70368;DHT22;57789;53.868;10.728;2023-06-05T03:48:49;10.10;99.90
70368;DHT22;57789;53.868;10.728;2023-06-05T03:51:18;10.10;99.90
70368;DHT22;57789;53.868;10.728;2023-06-05T03:53:45;10.10;99.90
70368;DHT22;57789;53.868;10.728;2023-06-05T03:56:11;10.10;99.90
70368;DHT22;57789;53.868;10.728;2023-06-05T03:58:40;10.20;99.90
70368;DHT22;57789;53.868;10.728;2023-06-05T04:01:07;10.20;99.90
70368;DHT22;57789;53.868;10.728;2023-06-05T04:03:33;10.20;99.90
70368;DHT22;57789;53.868;10.728;2023-06-05T04:06:03;10.20;99.90
70368;DHT22;57789;53.868;10.728;2023-06-05T04:08:28;10.30;99.90
70368;DHT22;57789;53.868;10.728;2023-06-05T04:10:54;10.30;99.90
70368;DHT22;57789;53.868;10.728;2023-06-05T04:13:20;10.40;99.90
70368;DHT22;57789;53.868;10.728;2023-06-05T04:15:47;10.40;99.90
70368;DHT22;57789;53.868;10.728;2023-06-05T04:18:14;10.50;99.90
70368;DHT22;57789;53.868;10.728;2023-06-05T04:20:40;10.50;99.90
70368;DHT22;57789;53.868;10.728;2023-06-05T04:23:06;10.60;99.90
70368;DHT22;57789;53.868;10.728;2023-06-05T04:25:31;10.70;99.90
70368;DHT22;57789;53.868;10.728;2023-06-05T04:27:57;10.70;99.90
70368;DHT22;57789;53.868;10.728;2023-06-05T04:30:24;10.80;99.90
70368;DHT22;57789;53.868;10.728;2023-06-05T04:32:50;10.90;99.90
70368;DHT22;57789;53.868;10.728;2023-06-05T04:35:22;11.00;99.90
70368;DHT22;57789;53.868;10.728;2023-06-05T04:37:48;11.10;99.90
70368;DHT22;57789;53.868;10.728;2023-06-05T04:40:16;11.20;99.90
70368;DHT22;57789;53.868;10.728;2023-06-05T04:42:42;11.30;99.90
70368;DHT22;57789;53.868;10.728;2023-06-05T04:45:08;11.40;99.90
70368;DHT22;57789;53.868;10.728;2023-06-05T04:47:34;11.50;99.90
70368;DHT22;57789;53.868;10.728;2023-06-05T04:50:02;11.40;99.90
70368;DHT22;57789;53.868;10.728;2023-06-05T04:52:32;11.50;99.90
70368;DHT22;57789;53.868;10.728;2023-06-05T04:54:59;11.50;99.90
70368;DHT22;57789;53.868;10.728;2023-06-05T04:57:27;11.60;99.90
70368;DHT22;57789;53.868;10.728;2023-06-05T04:59:54;11.60;99.90
70368;DHT22;57789;53.868;10.728;2023-06-05T05:02:20;11.70;99.90
70368;DHT22;57789;53.868;10.728;2023-06-05T05:04:47;11.70;99.90
70368;DHT22;57789;53.868;10.728;2023-06-05T05:07:13;11.80;99.90
70368;DHT22;57789;53.868;10.728;2023-06-05T05:09:45;11.90;99.90
70368;DHT22;57789;53.868;10.728;2023-06-05T05:12:11;12.00;99.90
70368;DHT22;57789;53.868;10.728;2023-06-05T05:14:37;12.10;99.90
70368;DHT22;57789;53.868;10.728;2023-06-05T05:17:05;12.20;99.90
70368;DHT22;57789;53.868;10.728;2023-06-05T05:19:31;12.20;99.90
70368;DHT22;57789;53.868;10.728;2023-06-05T05:21:57;12.30;99.90
70368;DHT22;57789;53.868;10.728;2023-06-05T05:24:23;12.40;99.90
70368;DHT22;57789;53.868;10.728;2023-06-05T05:26:51;12.40;99.90
70368;DHT22;57789;53.868;10.728;2023-06-05T05:29:17;12.50;99.90
70368;DHT22;57789;53.868;10.728;2023-06-05T05:31:43;12.60;99.90
70368;DHT22;57789;53.868;10.728;2023-06-05T05:34:09;12.70;99.90
70368;DHT22;57789;53.868;10.728;2023-06-05T05:36:35;12.80;99.90
70368;DHT22;57789;53.868;10.728;2023-06-05T05:39:02;13.00;99.90
70368;DHT22;57789;53.868;10.728;2023-06-05T05:41:28;13.00;99.90
70368;DHT22;57789;53.868;10.728;2023-06-05T05:43:54;13.10;99.90
70368;DHT22;57789;53.868;10.728;2023-06-05T05:46:20;13.20;99.90
70368;DHT22;57789;53.868;10.728;2023-06-05T05:48:46;13.30;99.90
70368;DHT22;57789;53.868;10.728;2023-06-05T05:51:12;13.40;99.90
70368;DHT22;57789;53.868;10.728;2023-06-05T05:53:39;13.50;99.90
70368;DHT22;57789;53.868;10.728;2023-06-05T05:56:06;13.70;99.90
70368;DHT22;57789;53.868;10.728;2023-06-05T05:58:32;13.70;99.90
70368;DHT22;57789;53.868;10.728;2023-06-05T06:00:58;13.90;99.90
70368;DHT22;57789;53.868;10.728;2023-06-05T06:03:27;14.00;99.90
70368;DHT22;57789;53.868;10.728;2023-06-05T06:05:54;14.00;99.90
70368;DHT22;57789;53.868;10.728;2023-06-05T06:08:20;14.10;99.90
70368;DHT22;57789;53.868;10.728;2023-06-05T06:10:46;14.20;99.90
70368;DHT22;57789;53.868;10.728;2023-06-05T06:13:12;14.30;99.90
70368;DHT22;57789;53.868;10.728;2023-06-05T06:15:38;14.40;99.90
70368;DHT22;57789;53.868;10.728;2023-06-05T06:18:05;14.50;99.90
70368;DHT22;57789;53.868;10.728;2023-06-05T06:20:32;14.50;99.90
70368;DHT22;57789;53.868;10.728;2023-06-05T06:22:59;14.70;99.90
70368;DHT22;57789;53.868;10.728;2023-06-05T06:25:25;14.70;99.90
70368;DHT22;57789;53.868;10.728;2023-06-05T06:27:55;14.80;99.90
70368;DHT22;57789;53.868;10.728;2023-06-05T06:30:21;14.80;99.90
70368;DHT22;57789;53.868;10.728;2023-06-05T06:32:47;14.90;99.90
70368;DHT22;57789;53.868;10.728;2023-06-05T06:35:13;15.00;99.90
70368;DHT22;57789;53.868;10.728;2023-06-05T06:37:42;15.10;99.90
70368;DHT22;57789;53.868;10.728;2023-06-05T06:40:10;15.20;99.90
70368;DHT22;57789;53.868;10.728;2023-06-05T06:42:39;15.30;99.90
70368;DHT22;57789;53.868;10.728;2023-06-05T06:45:05;15.30;99.90
70368;DHT22;57789;53.868;10.728;2023-06-05T06:47:31;15.30;99.90
70368;DHT22;57789;53.868;10.728;2023-06-05T06:49:57;15.40;99.90
70368;DHT22;57789;53.868;10.728;2023-06-05T06:52:23;15.50;99.90
70368;DHT22;57789;53.868;10.728;2023-06-05T06:54:50;15.60;99.90
70368;DHT22;57789;53.868;10.728;2023-06-05T06:57:15;15.70;99.90
70368;DHT22;57789;53.868;10.728;2023-06-05T06:59:41;15.80;99.90
70368;DHT22;57789;53.868;10.728;2023-06-05T07:02:17;15.80;99.90
70368;DHT22;57789;53.868;10.728;2023-06-05T07:04:44;16.00;99.90
70368;DHT22;57789;53.868;10.728;2023-06-05T07:07:11;16.00;99.90
70368;DHT22;57789;53.868;10.728;2023-06-05T07:09:41;16.10;99.90
70368;DHT22;57789;53.868;10.728;2023-06-05T07:12:15;16.20;99.90
70368;DHT22;57789;53.868;10.728;2023-06-05T07:14:41;16.20;99.90
70368;DHT22;57789;53.868;10.728;2023-06-05T07:17:07;16.30;99.90
70368;DHT22;57789;53.868;10.728;2023-06-05T07:19:36;16.50;99.90
70368;DHT22;57789;53.868;10.728;2023-06-05T07:22:05;16.50;99.90
70368;DHT22;57789;53.868;10.728;2023-06-05T07:24:32;16.50;99.90
70368;DHT22;57789;53.868;10.728;2023-06-05T07:27:00;16.50;99.90
70368;DHT22;57789;53.868;10.728;2023-06-05T07:29:26;16.60;99.90
70368;DHT22;57789;53.868;10.728;2023-06-05T07:31:53;16.60;99.90
70368;DHT22;57789;53.868;10.728;2023-06-05T07:34:21;16.70;99.90
70368;DHT22;57789;53.868;10.728;2023-06-05T07:36:48;16.80;99.90
70368;DHT22;57789;53.868;10.728;2023-06-05T07:39:17;16.80;99.90
70368;DHT22;57789;53.868;10.728;2023-06-05T07:41:43;16.80;99.90
70368;DHT22;57789;53.868;10.728;2023-06-05T07:44:09;16.90;99.90
70368;DHT22;57789;53.868;10.728;2023-06-05T07:46:36;16.90;99.90
70368;DHT22;57789;53.868;10.728;2023-06-05T07:49:02;16.90;99.90
70368;DHT22;57789;53.868;10.728;2023-06-05T07:51:28;17.00;99.90
70368;DHT22;57789;53.868;10.728;2023-06-05T07:53:53;17.20;99.90
70368;DHT22;57789;53.868;10.728;2023-06-05T07:56:19;17.20;99.90
70368;DHT22;57789;53.868;10.728;2023-06-05T07:58:49;17.20;99.90
70368;DHT22;57789;53.868;10.728;2023-06-05T08:01:15;17.30;99.90
70368;DHT22;57789;53.868;10.728;2023-06-05T08:03:41;17.50;99.90
70368;DHT22;57789;53.868;10.728;2023-06-05T08:06:09;17.60;99.90
70368;DHT22;57789;53.868;10.728;2023-06-05T08:08:36;17.60;99.90
70368;DHT22;57789;53.868;10.728;2023-06-05T08:11:01;17.70;99.90
70368;DHT22;57789;53.868;10.728;2023-06-05T08:13:27;17.90;99.90
70368;DHT22;57789;53.868;10.728;2023-06-05T08:15:53;17.80;99.90
70368;DHT22;57789;53.868;10.728;2023-06-05T08:18:19;17.90;99.90
70368;DHT22;57789;53.868;10.728;2023-06-05T08:20:46;17.90;99.90
70368;DHT22;57789;53.868;10.728;2023-06-05T08:23:12;18.00;99.90
70368;DHT22;57789;53.868;10.728;2023-06-05T08:25:39;18.00;99.90
70368;DHT22;57789;53.868;10.728;2023-06-05T08:28:07;18.20;99.90
70368;DHT22;57789;53.868;10.728;2023-06-05T08:30:33;18.20;99.90
70368;DHT22;57789;53.868;10.728;2023-06-05T08:32:59;18.20;99.90
70368;DHT22;57789;53.868;10.728;2023-06-05T08:35:25;18.30;99.90
70368;DHT22;57789;53.868;10.728;2023-06-05T08:37:51;18.40;99.90
70368;DHT22;57789;53.868;10.728;2023-06-05T08:40:18;18.40;99.90
70368;DHT22;57789;53.868;10.728;2023-06-05T08:42:44;18.60;99.90
70368;DHT22;57789;53.868;10.728;2023-06-05T08:45:11;18.70;99.90
70368;DHT22;57789;53.868;10.728;2023-06-05T08:47:38;18.80;99.90
70368;DHT22;57789;53.868;10.728;2023-06-05T08:50:06;18.90;99.90
70368;DHT22;57789;53.868;10.728;2023-06-05T08:52:37;18.90;99.90
70368;DHT22;57789;53.868;10.728;2023-06-05T08:55:04;18.90;99.90
70368;DHT22;57789;53.868;10.728;2023-06-05T08:57:32;18.90;99.90
70368;DHT22;57789;53.868;10.728;2023-06-05T09:00:00;19.10;99.90
70368;DHT22;57789;53.868;10.728;2023-06-05T09:02:26;19.30;99.90
70368;DHT22;57789;53.868;10.728;2023-06-05T09:04:52;19.40;99.90
70368;DHT22;57789;53.868;10.728;2023-06-05T09:07:18;19.50;99.90
70368;DHT22;57789;53.868;10.728;2023-06-05T09:09:44;19.60;99.90
70368;DHT22;57789;53.868;10.728;2023-06-05T09:12:10;19.70;99.90
70368;DHT22;57789;53.868;10.728;2023-06-05T09:14:37;19.90;99.90
70368;DHT22;57789;53.868;10.728;2023-06-05T09:17:03;20.10;99.90
70368;DHT22;57789;53.868;10.728;2023-06-05T09:19:39;20.20;99.90
70368;DHT22;57789;53.868;10.728;2023-06-05T09:22:10;20.40;99.90
70368;DHT22;57789;53.868;10.728;2023-06-05T09:24:37;20.60;99.90
70368;DHT22;57789;53.868;10.728;2023-06-05T09:27:10;21.10;99.90
70368;DHT22;57789;53.868;10.728;2023-06-05T09:29:41;21.50;99.90
70368;DHT22;57789;53.868;10.728;2023-06-05T09:32:18;21.80;99.90
70368;DHT22;57789;53.868;10.728;2023-06-05T09:34:45;22.10;99.90
70368;DHT22;57789;53.868;10.728;2023-06-05T09:37:12;22.50;99.90
70368;DHT22;57789;53.868;10.728;2023-06-05T09:39:40;22.80;99.90
70368;DHT22;57789;53.868;10.728;2023-06-05T09:42:06;23.00;99.90
70368;DHT22;57789;53.868;10.728;2023-06-05T09:44:33;23.00;99.90
70368;DHT22;57789;53.868;10.728;2023-06-05T09:47:06;22.80;99.90
70368;DHT22;57789;53.868;10.728;2023-06-05T09:52:07;22.40;99.90
70368;DHT22;57789;53.868;10.728;2023-06-05T09:54:36;22.20;99.90
70368;DHT22;57789;53.868;10.728;2023-06-05T09:57:04;22.10;99.90
70368;DHT22;57789;53.868;10.728;2023-06-05T09:59:32;22.10;99.90
70368;DHT22;57789;53.868;10.728;2023-06-05T10:02:03;22.00;99.90
70368;DHT22;57789;53.868;10.728;2023-06-05T10:04:43;22.20;99.90
70368;DHT22;57789;53.868;10.728;2023-06-05T10:07:11;21.80;99.90
70368;DHT22;57789;53.868;10.728;2023-06-05T10:09:38;21.90;99.90
70368;DHT22;57789;53.868;10.728;2023-06-05T10:12:07;21.90;99.90
70368;DHT22;57789;53.868;10.728;2023-06-05T10:14:39;22.10;99.90
70368;DHT22;57789;53.868;10.728;2023-06-05T10:17:12;22.20;99.90
70368;DHT22;57789;53.868;10.728;2023-06-05T10:19:41;22.40;99.90
70368;DHT22;57789;53.868;10.728;2023-06-05T10:22:13;22.40;99.90
70368;DHT22;57789;53.868;10.728;2023-06-05T10:24:43;22.50;99.90
70368;DHT22;57789;53.868;10.728;2023-06-05T10:30:06;23.10;99.90
70368;DHT22;57789;53.868;10.728;2023-06-05T10:33:01;23.50;99.90
70368;DHT22;57789;53.868;10.728;2023-06-05T10:38:27;23.20;99.90
70368;DHT22;57789;53.868;10.728;2023-06-05T10:40:57;23.10;99.90
70368;DHT22;57789;53.868;10.728;2023-06-05T10:43:31;22.80;99.90
70368;DHT22;57789;53.868;10.728;2023-06-05T10:46:02;22.60;99.90
70368;DHT22;57789;53.868;10.728;2023-06-05T10:54:54;22.40;99.90
70368;DHT22;57789;53.868;10.728;2023-06-05T10:57:04;22.70;99.90
70368;DHT22;57789;53.868;10.728;2023-06-05T10:59:39;22.60;99.90
70368;DHT22;57789;53.868;10.728;2023-06-05T11:07:22;23.10;99.90
70368;DHT22;57789;53.868;10.728;2023-06-05T11:15:08;23.20;99.90
70368;DHT22;57789;53.868;10.728;2023-06-05T11:17:38;23.20;99.90
70368;DHT22;57789;53.868;10.728;2023-06-05T11:27:49;23.70;99.90
70368;DHT22;57789;53.868;10.728;2023-06-05T11:30:17;23.90;99.90
70368;DHT22;57789;53.868;10.728;2023-06-05T11:32:44;23.80;99.60
70368;DHT22;57789;53.868;10.728;2023-06-05T11:35:11;24.00;99.90
70368;DHT22;57789;53.868;10.728;2023-06-05T11:37:38;23.80;99.60
70368;DHT22;57789;53.868;10.728;2023-06-05T11:40:06;23.70;99.90
70368;DHT22;57789;53.868;10.728;2023-06-05T11:42:38;23.90;99.50
70368;DHT22;57789;53.868;10.728;2023-06-05T11:45:11;24.00;98.80
70368;DHT22;57789;53.868;10.728;2023-06-05T11:47:39;24.60;98.30
70368;DHT22;57789;53.868;10.728;2023-06-05T11:50:13;25.10;97.50
70368;DHT22;57789;53.868;10.728;2023-06-05T11:52:39;25.50;95.80
70368;DHT22;57789;53.868;10.728;2023-06-05T11:55:18;25.80;92.80
70368;DHT22;57789;53.868;10.728;2023-06-05T11:57:48;26.40;90.30
70368;DHT22;57789;53.868;10.728;2023-06-05T12:00:15;26.30;88.10
70368;DHT22;57789;53.868;10.728;2023-06-05T12:02:44;26.30;89.50
70368;DHT22;57789;53.868;10.728;2023-06-05T12:05:10;26.60;89.40
70368;DHT22;57789;53.868;10.728;2023-06-05T12:07:36;27.00;84.00
70368;DHT22;57789;53.868;10.728;2023-06-05T12:10:03;26.90;81.70
70368;DHT22;57789;53.868;10.728;2023-06-05T12:12:30;27.20;80.50
70368;DHT22;57789;53.868;10.728;2023-06-05T12:14:55;27.50;79.20
70368;DHT22;57789;53.868;10.728;2023-06-05T12:17:21;27.80;77.60
70368;DHT22;57789;53.868;10.728;2023-06-05T12:19:55;28.40;76.20
70368;DHT22;57789;53.868;10.728;2023-06-05T12:22:21;29.10;74.00
70368;DHT22;57789;53.868;10.728;2023-06-05T12:24:48;29.60;70.20
70368;DHT22;57789;53.868;10.728;2023-06-05T12:27:14;29.50;66.70
70368;DHT22;57789;53.868;10.728;2023-06-05T12:29:53;29.00;67.00
70368;DHT22;57789;53.868;10.728;2023-06-05T12:32:24;28.10;69.40
70368;DHT22;57789;53.868;10.728;2023-06-05T12:34:51;27.90;70.50
70368;DHT22;57789;53.868;10.728;2023-06-05T12:37:24;27.70;71.00
70368;DHT22;57789;53.868;10.728;2023-06-05T12:39:53;27.90;72.40
70368;DHT22;57789;53.868;10.728;2023-06-05T12:42:19;28.50;71.10
70368;DHT22;57789;53.868;10.728;2023-06-05T12:44:45;29.30;70.50
70368;DHT22;57789;53.868;10.728;2023-06-05T12:47:10;29.70;68.00
70368;DHT22;57789;53.868;10.728;2023-06-05T12:49:36;29.50;66.90
70368;DHT22;57789;53.868;10.728;2023-06-05T12:52:03;29.00;67.40
70368;DHT22;57789;53.868;10.728;2023-06-05T12:54:29;28.50;67.70
70368;DHT22;57789;53.868;10.728;2023-06-05T12:56:56;28.20;69.30
70368;DHT22;57789;53.868;10.728;2023-06-05T12:59:22;27.90;70.40
70368;DHT22;57789;53.868;10.728;2023-06-05T13:01:48;27.20;73.30
70368;DHT22;57789;53.868;10.728;2023-06-05T13:04:15;26.70;75.60
70368;DHT22;57789;53.868;10.728;2023-06-05T13:06:41;26.60;79.20
70368;DHT22;57789;53.868;10.728;2023-06-05T13:09:07;27.10;79.60
70368;DHT22;57789;53.868;10.728;2023-06-05T13:11:33;26.90;78.80
70368;DHT22;57789;53.868;10.728;2023-06-05T13:13:59;27.30;80.00
70368;DHT22;57789;53.868;10.728;2023-06-05T13:16:26;27.60;78.70
70368;DHT22;57789;53.868;10.728;2023-06-05T13:18:55;27.80;79.40
70368;DHT22;57789;53.868;10.728;2023-06-05T13:21:21;27.50;77.20
70368;DHT22;57789;53.868;10.728;2023-06-05T13:23:47;27.70;75.50
70368;DHT22;57789;53.868;10.728;2023-06-05T13:26:12;27.60;75.30
70368;DHT22;57789;53.868;10.728;2023-06-05T13:28:38;28.00;75.20
70368;DHT22;57789;53.868;10.728;2023-06-05T13:31:04;28.20;75.40
70368;DHT22;57789;53.868;10.728;2023-06-05T13:33:31;28.70;72.50
70368;DHT22;57789;53.868;10.728;2023-06-05T13:35:59;29.50;70.40
70368;DHT22;57789;53.868;10.728;2023-06-05T13:38:26;30.60;68.20
70368;DHT22;57789;53.868;10.728;2023-06-05T13:40:52;31.20;67.40
70368;DHT22;57789;53.868;10.728;2023-06-05T13:43:18;31.60;63.70
70368;DHT22;57789;53.868;10.728;2023-06-05T13:45:45;31.70;62.40
70368;DHT22;57789;53.868;10.728;2023-06-05T13:48:10;31.40;63.60
70368;DHT22;57789;53.868;10.728;2023-06-05T13:50:36;32.10;63.30
70368;DHT22;57789;53.868;10.728;2023-06-05T13:53:02;32.20;62.20
70368;DHT22;57789;53.868;10.728;2023-06-05T13:55:28;31.30;59.80
70368;DHT22;57789;53.868;10.728;2023-06-05T13:57:54;31.70;60.80
70368;DHT22;57789;53.868;10.728;2023-06-05T14:00:21;31.50;59.90
70368;DHT22;57789;53.868;10.728;2023-06-05T14:02:47;31.70;61.30
70368;DHT22;57789;53.868;10.728;2023-06-05T14:05:13;31.70;60.00
70368;DHT22;57789;53.868;10.728;2023-06-05T14:07:42;31.70;59.60
70368;DHT22;57789;53.868;10.728;2023-06-05T14:10:08;32.00;59.60
70368;DHT22;57789;53.868;10.728;2023-06-05T14:12:33;32.50;59.00
70368;DHT22;57789;53.868;10.728;2023-06-05T14:15:00;32.50;57.80
70368;DHT22;57789;53.868;10.728;2023-06-05T14:17:26;32.80;57.50
70368;DHT22;57789;53.868;10.728;2023-06-05T14:19:52;32.80;57.50
70368;DHT22;57789;53.868;10.728;2023-06-05T14:22:19;33.00;56.70
70368;DHT22;57789;53.868;10.728;2023-06-05T14:24:46;33.20;57.00
70368;DHT22;57789;53.868;10.728;2023-06-05T14:27:11;33.10;56.00
70368;DHT22;57789;53.868;10.728;2023-06-05T14:29:38;33.20;55.10
70368;DHT22;57789;53.868;10.728;2023-06-05T14:32:05;32.60;55.40
70368;DHT22;57789;53.868;10.728;2023-06-05T14:34:31;32.70;56.30
70368;DHT22;57789;53.868;10.728;2023-06-05T14:36:56;33.30;54.90
70368;DHT22;57789;53.868;10.728;2023-06-05T14:39:22;33.90;54.50
70368;DHT22;57789;53.868;10.728;2023-06-05T14:41:48;34.10;53.70
70368;DHT22;57789;53.868;10.728;2023-06-05T14:44:14;33.30;52.90
70368;DHT22;57789;53.868;10.728;2023-06-05T14:46:40;33.10;54.80
70368;DHT22;57789;53.868;10.728;2023-06-05T14:49:05;33.10;54.30
70368;DHT22;57789;53.868;10.728;2023-06-05T14:51:31;33.20;55.10
70368;DHT22;57789;53.868;10.728;2023-06-05T14:53:57;33.60;54.00
70368;DHT22;57789;53.868;10.728;2023-06-05T14:56:23;33.50;53.50
70368;DHT22;57789;53.868;10.728;2023-06-05T14:58:49;32.90;54.10
70368;DHT22;57789;53.868;10.728;2023-06-05T15:01:17;33.20;55.10
70368;DHT22;57789;53.868;10.728;2023-06-05T15:03:44;33.60;54.90
70368;DHT22;57789;53.868;10.728;2023-06-05T15:06:10;34.40;54.00
70368;DHT22;57789;53.868;10.728;2023-06-05T15:08:36;34.60;52.50
70368;DHT22;57789;53.868;10.728;2023-06-05T15:11:03;35.00;52.40
70368;DHT22;57789;53.868;10.728;2023-06-05T15:13:29;34.40;52.20
70368;DHT22;57789;53.868;10.728;2023-06-05T15:15:54;33.70;53.50
70368;DHT22;57789;53.868;10.728;2023-06-05T15:18:20;33.90;53.50
70368;DHT22;57789;53.868;10.728;2023-06-05T15:20:46;33.60;54.00
70368;DHT22;57789;53.868;10.728;2023-06-05T15:23:11;33.60;53.40
70368;DHT22;57789;53.868;10.728;2023-06-05T15:25:37;34.20;53.20
70368;DHT22;57789;53.868;10.728;2023-06-05T15:28:05;34.00;53.20
70368;DHT22;57789;53.868;10.728;2023-06-05T15:30:31;34.50;52.30
70368;DHT22;57789;53.868;10.728;2023-06-05T15:32:58;34.50;51.30
70368;DHT22;57789;53.868;10.728;2023-06-05T15:35:24;34.60;51.40
70368;DHT22;57789;53.868;10.728;2023-06-05T15:37:51;34.70;51.40
70368;DHT22;57789;53.868;10.728;2023-06-05T15:40:17;34.90;50.30
70368;DHT22;57789;53.868;10.728;2023-06-05T15:42:43;34.90;50.30
70368;DHT22;57789;53.868;10.728;2023-06-05T15:45:13;34.50;50.10
70368;DHT22;57789;53.868;10.728;2023-06-05T15:47:41;34.20;50.20
70368;DHT22;57789;53.868;10.728;2023-06-05T15:50:08;34.80;50.30
70368;DHT22;57789;53.868;10.728;2023-06-05T15:52:35;35.00;49.10